sensor_id;sensor_type;location;lat;lon;timestamp;P1;durP1;ratioP1;P2;durP2;ratioP2
52380;SDS011;38310;52.796;6.942;2023-04-25T00:01:48;17.38;;;7.35;;
52380;SDS011;38310;52.796;6.942;2023-04-25T00:04:13;21.83;;;7.30;;
52380;SDS011;38310;52.796;6.942;2023-04-25T00:06:39;24.27;;;6.78;;
52380;SDS011;38310;52.796;6.942;2023-04-25T00:09:05;20.15;;;6.68;;
52380;SDS011;38310;52.796;6.942;2023-04-25T00:11:36;18.55;;;6.72;;
52380;SDS011;38310;52.796;6.942;2023-04-25T00:14:02;18.60;;;7.72;;
52380;SDS011;38310;52.796;6.942;2023-04-25T00:16:28;17.25;;;7.47;;
52380;SDS011;38310;52.796;6.942;2023-04-25T00:18:58;23.95;;;8.10;;
52380;SDS011;38310;52.796;6.942;2023-04-25T00:21:24;22.30;;;7.65;;
52380;SDS011;38310;52.796;6.942;2023-04-25T00:23:51;21.77;;;8.20;;
52380;SDS011;38310;52.796;6.942;2023-04-25T00:26:18;23.02;;;8.63;;
52380;SDS011;38310;52.796;6.942;2023-04-25T00:28:43;19.15;;;7.38;;
52380;SDS011;38310;52.796;6.942;2023-04-25T00:31:10;22.85;;;7.93;;
52380;SDS011;38310;52.796;6.942;2023-04-25T00:33:35;25.73;;;8.52;;
52380;SDS011;38310;52.796;6.942;2023-04-25T00:36:01;19.80;;;7.30;;
52380;SDS011;38310;52.796;6.942;2023-04-25T00:38:27;15.48;;;7.20;;
52380;SDS011;38310;52.796;6.942;2023-04-25T00:40:53;21.85;;;7.60;;
52380;SDS011;38310;52.796;6.942;2023-04-25T00:43:20;21.10;;;8.45;;
52380;SDS011;38310;52.796;6.942;2023-04-25T00:45:46;17.13;;;7.28;;
52380;SDS011;38310;52.796;6.942;2023-04-25T00:48:16;17.50;;;7.20;;
52380;SDS011;38310;52.796;6.942;2023-04-25T00:50:44;23.50;;;7.50;;
52380;SDS011;38310;52.796;6.942;2023-04-25T00:53:16;15.38;;;6.68;;
52380;SDS011;38310;52.796;6.942;2023-04-25T00:55:42;21.48;;;7.28;;
52380;SDS011;38310;52.796;6.942;2023-04-25T00:58:07;22.85;;;8.43;;
52380;SDS011;38310;52.796;6.942;2023-04-25T01:00:33;22.60;;;7.60;;
52380;SDS011;38310;52.796;6.942;2023-04-25T01:03:00;16.23;;;7.80;;
52380;SDS011;38310;52.796;6.942;2023-04-25T01:05:27;23.40;;;7.68;;
52380;SDS011;38310;52.796;6.942;2023-04-25T01:07:53;24.75;;;7.88;;
52380;SDS011;38310;52.796;6.942;2023-04-25T01:10:19;16.67;;;8.27;;
52380;SDS011;38310;52.796;6.942;2023-04-25T01:12:44;19.60;;;7.60;;
52380;SDS011;38310;52.796;6.942;2023-04-25T01:15:10;19.38;;;7.88;;
52380;SDS011;38310;52.796;6.942;2023-04-25T01:17:36;20.23;;;7.90;;
52380;SDS011;38310;52.796;6.942;2023-04-25T01:20:03;20.55;;;7.63;;
52380;SDS011;38310;52.796;6.942;2023-04-25T01:22:31;20.02;;;7.28;;
52380;SDS011;38310;52.796;6.942;2023-04-25T01:24:57;19.15;;;7.50;;
52380;SDS011;38310;52.796;6.942;2023-04-25T01:27:24;18.75;;;7.22;;
52380;SDS011;38310;52.796;6.942;2023-04-25T01:29:50;19.75;;;7.22;;
52380;SDS011;38310;52.796;6.942;2023-04-25T01:32:17;19.00;;;8.25;;
52380;SDS011;38310;52.796;6.942;2023-04-25T01:34:43;23.83;;;7.35;;
52380;SDS011;38310;52.796;6.942;2023-04-25T01:37:09;18.95;;;7.78;;
52380;SDS011;38310;52.796;6.942;2023-04-25T01:39:34;18.33;;;7.53;;
52380;SDS011;38310;52.796;6.942;2023-04-25T01:42:00;16.30;;;7.32;;
52380;SDS011;38310;52.796;6.942;2023-04-25T01:44:26;16.90;;;7.00;;
52380;SDS011;38310;52.796;6.942;2023-04-25T01:46:52;16.92;;;7.47;;
52380;SDS011;38310;52.796;6.942;2023-04-25T01:49:18;17.92;;;7.32;;
52380;SDS011;38310;52.796;6.942;2023-04-25T01:51:44;15.38;;;7.95;;
52380;SDS011;38310;52.796;6.942;2023-04-25T01:54:10;17.45;;;7.38;;
52380;SDS011;38310;52.796;6.942;2023-04-25T01:56:37;18.42;;;7.18;;
52380;SDS011;38310;52.796;6.942;2023-04-25T01:59:04;16.92;;;7.00;;
52380;SDS011;38310;52.796;6.942;2023-04-25T02:01:30;17.35;;;7.07;;
52380;SDS011;38310;52.796;6.942;2023-04-25T02:03:56;17.30;;;7.10;;
52380;SDS011;38310;52.796;6.942;2023-04-25T02:06:22;25.23;;;7.53;;
52380;SDS011;38310;52.796;6.942;2023-04-25T02:08:48;24.67;;;7.00;;
52380;SDS011;38310;52.796;6.942;2023-04-25T02:11:14;17.95;;;7.50;;
52380;SDS011;38310;52.796;6.942;2023-04-25T02:13:39;20.85;;;7.93;;
52380;SDS011;38310;52.796;6.942;2023-04-25T02:16:05;16.08;;;7.10;;
52380;SDS011;38310;52.796;6.942;2023-04-25T02:18:31;22.85;;;7.68;;
52380;SDS011;38310;52.796;6.942;2023-04-25T02:20:59;23.25;;;7.82;;
52380;SDS011;38310;52.796;6.942;2023-04-25T02:23:26;17.33;;;7.70;;
52380;SDS011;38310;52.796;6.942;2023-04-25T02:25:52;18.05;;;7.70;;
52380;SDS011;38310;52.796;6.942;2023-04-25T02:28:20;20.52;;;7.22;;
52380;SDS011;38310;52.796;6.942;2023-04-25T02:30:45;22.48;;;7.95;;
52380;SDS011;38310;52.796;6.942;2023-04-25T02:33:11;15.80;;;7.10;;
52380;SDS011;38310;52.796;6.942;2023-04-25T02:35:37;19.40;;;7.78;;
52380;SDS011;38310;52.796;6.942;2023-04-25T02:38:02;17.85;;;6.93;;
52380;SDS011;38310;52.796;6.942;2023-04-25T02:40:28;20.40;;;8.25;;
52380;SDS011;38310;52.796;6.942;2023-04-25T02:42:54;15.18;;;7.18;;
52380;SDS011;38310;52.796;6.942;2023-04-25T02:45:20;16.75;;;7.28;;
52380;SDS011;38310;52.796;6.942;2023-04-25T02:47:46;22.27;;;8.05;;
52380;SDS011;38310;52.796;6.942;2023-04-25T02:50:12;19.67;;;7.68;;
52380;SDS011;38310;52.796;6.942;2023-04-25T02:52:37;20.63;;;7.68;;
52380;SDS011;38310;52.796;6.942;2023-04-25T02:55:03;22.67;;;7.80;;
52380;SDS011;38310;52.796;6.942;2023-04-25T02:57:29;20.25;;;7.55;;
52380;SDS011;38310;52.796;6.942;2023-04-25T02:59:55;17.05;;;6.45;;
52380;SDS011;38310;52.796;6.942;2023-04-25T03:02:20;20.23;;;8.07;;
52380;SDS011;38310;52.796;6.942;2023-04-25T03:04:46;17.02;;;7.47;;
52380;SDS011;38310;52.796;6.942;2023-04-25T03:07:13;22.08;;;7.65;;
52380;SDS011;38310;52.796;6.942;2023-04-25T03:09:38;18.80;;;8.13;;
52380;SDS011;38310;52.796;6.942;2023-04-25T03:12:04;18.45;;;7.90;;
52380;SDS011;38310;52.796;6.942;2023-04-25T03:14:30;21.20;;;7.85;;
52380;SDS011;38310;52.796;6.942;2023-04-25T03:16:55;16.85;;;7.07;;
52380;SDS011;38310;52.796;6.942;2023-04-25T03:19:21;17.27;;;7.95;;
52380;SDS011;38310;52.796;6.942;2023-04-25T03:21:47;19.38;;;7.38;;
52380;SDS011;38310;52.796;6.942;2023-04-25T03:24:13;20.02;;;7.82;;
52380;SDS011;38310;52.796;6.942;2023-04-25T03:26:40;18.25;;;7.50;;
52380;SDS011;38310;52.796;6.942;2023-04-25T03:29:05;16.60;;;6.50;;
52380;SDS011;38310;52.796;6.942;2023-04-25T03:31:31;15.88;;;7.15;;
52380;SDS011;38310;52.796;6.942;2023-04-25T03:33:57;18.00;;;7.43;;
52380;SDS011;38310;52.796;6.942;2023-04-25T03:36:22;18.75;;;6.75;;
52380;SDS011;38310;52.796;6.942;2023-04-25T03:38:48;18.92;;;7.68;;
52380;SDS011;38310;52.796;6.942;2023-04-25T03:41:15;20.17;;;7.43;;
52380;SDS011;38310;52.796;6.942;2023-04-25T03:43:40;13.52;;;6.50;;
52380;SDS011;38310;52.796;6.942;2023-04-25T03:46:06;20.10;;;7.00;;
52380;SDS011;38310;52.796;6.942;2023-04-25T03:48:32;24.33;;;7.32;;
52380;SDS011;38310;52.796;6.942;2023-04-25T03:50:57;21.08;;;6.97;;
52380;SDS011;38310;52.796;6.942;2023-04-25T03:53:23;18.90;;;6.70;;
52380;SDS011;38310;52.796;6.942;2023-04-25T03:55:49;16.95;;;6.80;;
52380;SDS011;38310;52.796;6.942;2023-04-25T03:58:15;17.65;;;6.30;;
52380;SDS011;38310;52.796;6.942;2023-04-25T04:00:41;18.23;;;6.53;;
52380;SDS011;38310;52.796;6.942;2023-04-25T04:03:06;22.35;;;6.75;;
52380;SDS011;38310;52.796;6.942;2023-04-25T04:05:32;20.38;;;6.82;;
52380;SDS011;38310;52.796;6.942;2023-04-25T04:07:58;13.20;;;5.43;;
52380;SDS011;38310;52.796;6.942;2023-04-25T04:10:24;18.15;;;6.43;;
52380;SDS011;38310;52.796;6.942;2023-04-25T04:12:51;15.90;;;6.18;;
52380;SDS011;38310;52.796;6.942;2023-04-25T04:15:16;19.20;;;6.10;;
52380;SDS011;38310;52.796;6.942;2023-04-25T04:17:42;13.55;;;5.75;;
52380;SDS011;38310;52.796;6.942;2023-04-25T04:20:08;22.25;;;6.78;;
52380;SDS011;38310;52.796;6.942;2023-04-25T04:22:34;17.25;;;5.65;;
52380;SDS011;38310;52.796;6.942;2023-04-25T04:25:00;17.20;;;5.85;;
52380;SDS011;38310;52.796;6.942;2023-04-25T04:27:26;15.82;;;5.93;;
52380;SDS011;38310;52.796;6.942;2023-04-25T04:29:53;14.98;;;5.32;;
52380;SDS011;38310;52.796;6.942;2023-04-25T04:32:19;20.23;;;5.90;;
52380;SDS011;38310;52.796;6.942;2023-04-25T04:34:45;13.88;;;6.30;;
52380;SDS011;38310;52.796;6.942;2023-04-25T04:37:12;17.60;;;5.50;;
52380;SDS011;38310;52.796;6.942;2023-04-25T04:39:38;16.35;;;5.57;;
52380;SDS011;38310;52.796;6.942;2023-04-25T04:42:03;13.30;;;4.82;;
52380;SDS011;38310;52.796;6.942;2023-04-25T04:44:30;14.38;;;4.88;;
52380;SDS011;38310;52.796;6.942;2023-04-25T04:46:59;14.75;;;4.78;;
52380;SDS011;38310;52.796;6.942;2023-04-25T04:49:25;16.25;;;5.38;;
52380;SDS011;38310;52.796;6.942;2023-04-25T04:51:51;20.23;;;5.43;;
52380;SDS011;38310;52.796;6.942;2023-04-25T04:54:17;12.02;;;4.45;;
52380;SDS011;38310;52.796;6.942;2023-04-25T04:56:43;13.90;;;4.40;;
52380;SDS011;38310;52.796;6.942;2023-04-25T04:59:08;13.27;;;4.00;;
52380;SDS011;38310;52.796;6.942;2023-04-25T05:01:34;7.82;;;3.42;;
52380;SDS011;38310;52.796;6.942;2023-04-25T05:04:00;10.80;;;3.75;;
52380;SDS011;38310;52.796;6.942;2023-04-25T05:06:27;8.20;;;3.55;;
52380;SDS011;38310;52.796;6.942;2023-04-25T05:08:54;13.90;;;4.70;;
52380;SDS011;38310;52.796;6.942;2023-04-25T05:11:21;7.50;;;3.20;;
52380;SDS011;38310;52.796;6.942;2023-04-25T05:13:47;12.90;;;3.50;;
52380;SDS011;38310;52.796;6.942;2023-04-25T05:16:13;13.40;;;4.10;;
52380;SDS011;38310;52.796;6.942;2023-04-25T05:18:39;7.30;;;3.28;;
52380;SDS011;38310;52.796;6.942;2023-04-25T05:21:04;8.05;;;4.00;;
52380;SDS011;38310;52.796;6.942;2023-04-25T05:23:31;9.85;;;3.58;;
52380;SDS011;38310;52.796;6.942;2023-04-25T05:25:57;9.77;;;4.18;;
52380;SDS011;38310;52.796;6.942;2023-04-25T05:28:24;11.48;;;3.35;;
52380;SDS011;38310;52.796;6.942;2023-04-25T05:30:49;8.70;;;3.20;;
52380;SDS011;38310;52.796;6.942;2023-04-25T05:33:16;9.02;;;3.42;;
52380;SDS011;38310;52.796;6.942;2023-04-25T05:35:41;11.32;;;3.47;;
52380;SDS011;38310;52.796;6.942;2023-04-25T05:38:07;10.00;;;3.70;;
52380;SDS011;38310;52.796;6.942;2023-04-25T05:40:33;13.18;;;3.20;;
52380;SDS011;38310;52.796;6.942;2023-04-25T05:42:59;9.82;;;3.53;;
52380;SDS011;38310;52.796;6.942;2023-04-25T05:45:25;6.32;;;3.38;;
52380;SDS011;38310;52.796;6.942;2023-04-25T05:47:51;13.20;;;4.05;;
52380;SDS011;38310;52.796;6.942;2023-04-25T05:50:16;11.98;;;3.90;;
52380;SDS011;38310;52.796;6.942;2023-04-25T05:52:42;10.13;;;3.60;;
52380;SDS011;38310;52.796;6.942;2023-04-25T05:55:08;11.00;;;3.63;;
52380;SDS011;38310;52.796;6.942;2023-04-25T05:57:34;11.20;;;3.42;;
52380;SDS011;38310;52.796;6.942;2023-04-25T06:00:00;9.43;;;3.42;;
52380;SDS011;38310;52.796;6.942;2023-04-25T06:02:26;10.07;;;3.08;;
52380;SDS011;38310;52.796;6.942;2023-04-25T06:04:52;9.32;;;3.22;;
52380;SDS011;38310;52.796;6.942;2023-04-25T06:07:18;9.80;;;3.60;;
52380;SDS011;38310;52.796;6.942;2023-04-25T06:09:44;8.52;;;3.40;;
52380;SDS011;38310;52.796;6.942;2023-04-25T06:12:10;8.88;;;3.33;;
52380;SDS011;38310;52.796;6.942;2023-04-25T06:14:36;10.43;;;3.35;;
52380;SDS011;38310;52.796;6.942;2023-04-25T06:17:02;12.50;;;3.65;;
52380;SDS011;38310;52.796;6.942;2023-04-25T06:19:33;11.95;;;3.97;;
52380;SDS011;38310;52.796;6.942;2023-04-25T06:21:59;13.50;;;3.65;;
52380;SDS011;38310;52.796;6.942;2023-04-25T06:24:25;11.45;;;3.63;;
52380;SDS011;38310;52.796;6.942;2023-04-25T06:26:51;10.25;;;3.38;;
52380;SDS011;38310;52.796;6.942;2023-04-25T06:29:17;9.98;;;3.78;;
52380;SDS011;38310;52.796;6.942;2023-04-25T06:31:43;10.57;;;4.22;;
52380;SDS011;38310;52.796;6.942;2023-04-25T06:34:09;10.23;;;3.45;;
52380;SDS011;38310;52.796;6.942;2023-04-25T06:36:35;12.95;;;3.78;;
52380;SDS011;38310;52.796;6.942;2023-04-25T06:39:01;7.72;;;3.55;;
52380;SDS011;38310;52.796;6.942;2023-04-25T06:41:27;8.52;;;3.83;;
52380;SDS011;38310;52.796;6.942;2023-04-25T06:43:52;12.55;;;3.80;;
52380;SDS011;38310;52.796;6.942;2023-04-25T06:46:18;9.73;;;3.55;;
52380;SDS011;38310;52.796;6.942;2023-04-25T06:48:44;9.52;;;3.90;;
52380;SDS011;38310;52.796;6.942;2023-04-25T06:51:10;10.63;;;4.00;;
52380;SDS011;38310;52.796;6.942;2023-04-25T06:53:35;12.88;;;3.85;;
52380;SDS011;38310;52.796;6.942;2023-04-25T06:56:02;8.65;;;3.28;;
52380;SDS011;38310;52.796;6.942;2023-04-25T06:58:28;14.05;;;4.47;;
52380;SDS011;38310;52.796;6.942;2023-04-25T07:00:54;8.93;;;3.47;;
52380;SDS011;38310;52.796;6.942;2023-04-25T07:03:20;11.25;;;3.90;;
52380;SDS011;38310;52.796;6.942;2023-04-25T07:05:46;11.23;;;3.38;;
52380;SDS011;38310;52.796;6.942;2023-04-25T07:08:12;10.80;;;3.47;;
52380;SDS011;38310;52.796;6.942;2023-04-25T07:10:37;11.25;;;4.03;;
52380;SDS011;38310;52.796;6.942;2023-04-25T07:13:03;10.18;;;3.42;;
52380;SDS011;38310;52.796;6.942;2023-04-25T07:15:29;11.80;;;3.10;;
52380;SDS011;38310;52.796;6.942;2023-04-25T07:17:55;16.20;;;4.15;;
52380;SDS011;38310;52.796;6.942;2023-04-25T07:20:20;15.98;;;3.70;;
52380;SDS011;38310;52.796;6.942;2023-04-25T07:22:46;9.70;;;3.42;;
52380;SDS011;38310;52.796;6.942;2023-04-25T07:25:12;14.30;;;3.75;;
52380;SDS011;38310;52.796;6.942;2023-04-25T07:27:37;8.27;;;3.15;;
52380;SDS011;38310;52.796;6.942;2023-04-25T07:30:04;15.70;;;4.10;;
52380;SDS011;38310;52.796;6.942;2023-04-25T07:32:31;9.45;;;3.13;;
52380;SDS011;38310;52.796;6.942;2023-04-25T07:34:57;10.38;;;3.58;;
52380;SDS011;38310;52.796;6.942;2023-04-25T07:37:22;10.32;;;2.80;;
52380;SDS011;38310;52.796;6.942;2023-04-25T07:39:48;10.48;;;2.95;;
52380;SDS011;38310;52.796;6.942;2023-04-25T07:42:14;8.63;;;2.85;;
52380;SDS011;38310;52.796;6.942;2023-04-25T07:44:40;8.32;;;2.78;;
52380;SDS011;38310;52.796;6.942;2023-04-25T07:47:07;8.57;;;2.55;;
52380;SDS011;38310;52.796;6.942;2023-04-25T07:49:34;8.80;;;2.65;;
52380;SDS011;38310;52.796;6.942;2023-04-25T07:52:00;7.15;;;2.25;;
52380;SDS011;38310;52.796;6.942;2023-04-25T07:54:27;7.22;;;2.42;;
52380;SDS011;38310;52.796;6.942;2023-04-25T07:56:53;6.57;;;2.22;;
52380;SDS011;38310;52.796;6.942;2023-04-25T07:59:18;10.43;;;2.75;;
52380;SDS011;38310;52.796;6.942;2023-04-25T08:01:44;8.10;;;2.83;;
52380;SDS011;38310;52.796;6.942;2023-04-25T08:04:10;6.70;;;2.47;;
52380;SDS011;38310;52.796;6.942;2023-04-25T08:06:36;8.35;;;2.83;;
52380;SDS011;38310;52.796;6.942;2023-04-25T08:09:02;6.10;;;2.30;;
52380;SDS011;38310;52.796;6.942;2023-04-25T08:11:28;8.80;;;2.88;;
52380;SDS011;38310;52.796;6.942;2023-04-25T08:13:54;7.47;;;3.22;;
52380;SDS011;38310;52.796;6.942;2023-04-25T08:16:19;6.75;;;2.50;;
52380;SDS011;38310;52.796;6.942;2023-04-25T08:18:45;8.45;;;2.72;;
52380;SDS011;38310;52.796;6.942;2023-04-25T08:21:11;8.55;;;2.70;;
52380;SDS011;38310;52.796;6.942;2023-04-25T08:23:37;7.03;;;2.20;;
52380;SDS011;38310;52.796;6.942;2023-04-25T08:26:03;6.05;;;2.28;;
52380;SDS011;38310;52.796;6.942;2023-04-25T08:28:30;7.13;;;2.15;;
52380;SDS011;38310;52.796;6.942;2023-04-25T08:30:56;9.10;;;2.72;;
52380;SDS011;38310;52.796;6.942;2023-04-25T08:33:22;5.93;;;2.47;;
52380;SDS011;38310;52.796;6.942;2023-04-25T08:35:48;10.18;;;2.53;;
52380;SDS011;38310;52.796;6.942;2023-04-25T08:38:14;6.68;;;2.30;;
52380;SDS011;38310;52.796;6.942;2023-04-25T08:40:40;5.68;;;1.88;;
52380;SDS011;38310;52.796;6.942;2023-04-25T08:43:06;5.03;;;1.70;;
52380;SDS011;38310;52.796;6.942;2023-04-25T08:45:38;6.65;;;2.28;;
52380;SDS011;38310;52.796;6.942;2023-04-25T08:48:07;5.25;;;1.65;;
52380;SDS011;38310;52.796;6.942;2023-04-25T08:50:39;6.28;;;1.90;;
52380;SDS011;38310;52.796;6.942;2023-04-25T08:53:15;6.65;;;2.38;;
52380;SDS011;38310;52.796;6.942;2023-04-25T08:55:45;7.80;;;2.45;;
52380;SDS011;38310;52.796;6.942;2023-04-25T08:58:11;9.75;;;2.25;;
52380;SDS011;38310;52.796;6.942;2023-04-25T09:00:38;5.57;;;1.85;;
52380;SDS011;38310;52.796;6.942;2023-04-25T09:03:04;6.95;;;2.35;;
52380;SDS011;38310;52.796;6.942;2023-04-25T09:05:30;6.53;;;2.45;;
52380;SDS011;38310;52.796;6.942;2023-04-25T09:08:00;7.20;;;2.65;;
52380;SDS011;38310;52.796;6.942;2023-04-25T09:10:26;7.32;;;2.60;;
52380;SDS011;38310;52.796;6.942;2023-04-25T09:13:02;5.25;;;2.50;;
52380;SDS011;38310;52.796;6.942;2023-04-25T09:15:49;6.82;;;2.58;;
52380;SDS011;38310;52.796;6.942;2023-04-25T09:18:29;5.93;;;2.25;;
52380;SDS011;38310;52.796;6.942;2023-04-25T09:21:17;4.68;;;1.73;;
52380;SDS011;38310;52.796;6.942;2023-04-25T09:23:46;9.43;;;2.85;;
52380;SDS011;38310;52.796;6.942;2023-04-25T09:26:19;4.82;;;2.00;;
52380;SDS011;38310;52.796;6.942;2023-04-25T09:28:46;5.45;;;1.98;;
52380;SDS011;38310;52.796;6.942;2023-04-25T09:31:24;4.93;;;2.58;;
52380;SDS011;38310;52.796;6.942;2023-04-25T09:33:50;7.40;;;2.30;;
52380;SDS011;38310;52.796;6.942;2023-04-25T09:36:26;6.70;;;2.17;;
52380;SDS011;38310;52.796;6.942;2023-04-25T09:38:53;7.80;;;2.15;;
52380;SDS011;38310;52.796;6.942;2023-04-25T09:41:23;6.80;;;2.05;;
52380;SDS011;38310;52.796;6.942;2023-04-25T09:43:49;7.35;;;1.70;;
52380;SDS011;38310;52.796;6.942;2023-04-25T09:46:15;7.85;;;1.70;;
52380;SDS011;38310;52.796;6.942;2023-04-25T09:48:47;6.15;;;2.17;;
52380;SDS011;38310;52.796;6.942;2023-04-25T09:51:15;5.27;;;1.60;;
52380;SDS011;38310;52.796;6.942;2023-04-25T09:53:44;6.03;;;1.40;;
52380;SDS011;38310;52.796;6.942;2023-04-25T09:56:12;4.65;;;1.60;;
52380;SDS011;38310;52.796;6.942;2023-04-25T09:58:41;4.97;;;1.70;;
52380;SDS011;38310;52.796;6.942;2023-04-25T10:01:08;3.22;;;1.27;;
52380;SDS011;38310;52.796;6.942;2023-04-25T10:03:36;4.43;;;1.63;;
52380;SDS011;38310;52.796;6.942;2023-04-25T10:06:07;2.28;;;1.05;;
52380;SDS011;38310;52.796;6.942;2023-04-25T10:08:37;5.25;;;1.67;;
52380;SDS011;38310;52.796;6.942;2023-04-25T10:11:04;3.75;;;1.52;;
52380;SDS011;38310;52.796;6.942;2023-04-25T10:13:32;5.47;;;1.40;;
52380;SDS011;38310;52.796;6.942;2023-04-25T10:15:59;5.68;;;1.75;;
52380;SDS011;38310;52.796;6.942;2023-04-25T10:18:27;7.07;;;1.83;;
52380;SDS011;38310;52.796;6.942;2023-04-25T10:20:57;5.50;;;1.60;;
52380;SDS011;38310;52.796;6.942;2023-04-25T10:23:25;3.92;;;1.70;;
52380;SDS011;38310;52.796;6.942;2023-04-25T10:25:52;7.97;;;2.45;;
52380;SDS011;38310;52.796;6.942;2023-04-25T10:28:19;8.27;;;1.90;;
52380;SDS011;38310;52.796;6.942;2023-04-25T10:33:32;4.65;;;1.73;;
52380;SDS011;38310;52.796;6.942;2023-04-25T10:36:08;4.43;;;1.40;;
52380;SDS011;38310;52.796;6.942;2023-04-25T10:38:38;5.88;;;1.80;;
52380;SDS011;38310;52.796;6.942;2023-04-25T10:41:05;6.68;;;1.70;;
52380;SDS011;38310;52.796;6.942;2023-04-25T10:46:15;4.43;;;1.55;;
52380;SDS011;38310;52.796;6.942;2023-04-25T10:49:00;4.60;;;2.40;;
52380;SDS011;38310;52.796;6.942;2023-04-25T10:51:30;2.88;;;1.40;;
52380;SDS011;38310;52.796;6.942;2023-04-25T10:53:58;6.93;;;1.60;;
52380;SDS011;38310;52.796;6.942;2023-04-25T10:56:32;3.97;;;1.70;;
52380;SDS011;38310;52.796;6.942;2023-04-25T11:01:36;5.03;;;2.00;;
52380;SDS011;38310;52.796;6.942;2023-04-25T11:04:02;3.90;;;1.80;;
52380;SDS011;38310;52.796;6.942;2023-04-25T11:09:00;5.75;;;2.22;;
52380;SDS011;38310;52.796;6.942;2023-04-25T11:11:28;4.38;;;1.70;;
52380;SDS011;38310;52.796;6.942;2023-04-25T11:13:54;5.90;;;2.10;;
52380;SDS011;38310;52.796;6.942;2023-04-25T11:16:20;5.95;;;2.05;;
52380;SDS011;38310;52.796;6.942;2023-04-25T11:18:49;8.15;;;2.45;;
52380;SDS011;38310;52.796;6.942;2023-04-25T11:21:15;7.75;;;2.33;;
52380;SDS011;38310;52.796;6.942;2023-04-25T11:23:44;8.50;;;2.30;;
52380;SDS011;38310;52.796;6.942;2023-04-25T11:26:11;6.20;;;2.40;;
52380;SDS011;38310;52.796;6.942;2023-04-25T11:28:39;7.28;;;2.55;;
52380;SDS011;38310;52.796;6.942;2023-04-25T11:31:04;7.35;;;2.00;;
52380;SDS011;38310;52.796;6.942;2023-04-25T11:33:31;6.93;;;2.30;;
52380;SDS011;38310;52.796;6.942;2023-04-25T11:35:56;6.65;;;2.15;;
52380;SDS011;38310;52.796;6.942;2023-04-25T11:38:23;5.32;;;1.88;;
52380;SDS011;38310;52.796;6.942;2023-04-25T11:40:51;8.32;;;2.45;;
52380;SDS011;38310;52.796;6.942;2023-04-25T11:43:19;5.68;;;2.10;;
52380;SDS011;38310;52.796;6.942;2023-04-25T11:45:47;7.88;;;2.00;;
52380;SDS011;38310;52.796;6.942;2023-04-25T11:48:17;8.70;;;2.10;;
52380;SDS011;38310;52.796;6.942;2023-04-25T11:50:44;9.43;;;1.50;;
52380;SDS011;38310;52.796;6.942;2023-04-25T11:53:10;3.47;;;1.20;;
52380;SDS011;38310;52.796;6.942;2023-04-25T11:55:36;3.17;;;1.23;;
52380;SDS011;38310;52.796;6.942;2023-04-25T11:58:03;4.78;;;1.90;;
52380;SDS011;38310;52.796;6.942;2023-04-25T12:00:29;4.22;;;1.45;;
52380;SDS011;38310;52.796;6.942;2023-04-25T12:02:56;3.17;;;1.58;;
52380;SDS011;38310;52.796;6.942;2023-04-25T12:05:23;4.65;;;1.55;;
52380;SDS011;38310;52.796;6.942;2023-04-25T12:07:51;5.32;;;1.73;;
52380;SDS011;38310;52.796;6.942;2023-04-25T12:10:17;5.70;;;2.00;;
52380;SDS011;38310;52.796;6.942;2023-04-25T12:12:44;5.55;;;1.60;;
52380;SDS011;38310;52.796;6.942;2023-04-25T12:15:11;5.20;;;1.77;;
52380;SDS011;38310;52.796;6.942;2023-04-25T12:17:40;4.45;;;1.60;;
52380;SDS011;38310;52.796;6.942;2023-04-25T12:20:13;5.00;;;2.00;;
52380;SDS011;38310;52.796;6.942;2023-04-25T12:22:41;6.07;;;1.92;;
52380;SDS011;38310;52.796;6.942;2023-04-25T12:25:57;6.15;;;1.85;;
52380;SDS011;38310;52.796;6.942;2023-04-25T12:28:14;5.15;;;1.88;;
52380;SDS011;38310;52.796;6.942;2023-04-25T12:33:20;4.53;;;2.15;;
52380;SDS011;38310;52.796;6.942;2023-04-25T12:35:46;6.22;;;1.70;;
52380;SDS011;38310;52.796;6.942;2023-04-25T12:38:35;7.63;;;1.88;;
52380;SDS011;38310;52.796;6.942;2023-04-25T12:41:01;5.82;;;1.90;;
52380;SDS011;38310;52.796;6.942;2023-04-25T12:43:27;10.93;;;2.33;;
52380;SDS011;38310;52.796;6.942;2023-04-25T12:45:53;9.35;;;2.67;;
52380;SDS011;38310;52.796;6.942;2023-04-25T12:48:20;7.22;;;2.22;;
52380;SDS011;38310;52.796;6.942;2023-04-25T12:50:46;13.55;;;2.60;;
52380;SDS011;38310;52.796;6.942;2023-04-25T12:53:24;6.35;;;2.10;;
52380;SDS011;38310;52.796;6.942;2023-04-25T12:55:50;6.20;;;1.80;;
52380;SDS011;38310;52.796;6.942;2023-04-25T12:58:16;8.13;;;2.00;;
52380;SDS011;38310;52.796;6.942;2023-04-25T13:00:44;4.57;;;2.13;;
52380;SDS011;38310;52.796;6.942;2023-04-25T13:03:10;6.47;;;2.08;;
52380;SDS011;38310;52.796;6.942;2023-04-25T13:05:37;5.57;;;1.80;;
52380;SDS011;38310;52.796;6.942;2023-04-25T13:08:04;3.35;;;1.48;;
52380;SDS011;38310;52.796;6.942;2023-04-25T13:10:30;5.65;;;1.98;;
52380;SDS011;38310;52.796;6.942;2023-04-25T13:12:55;4.28;;;1.95;;
52380;SDS011;38310;52.796;6.942;2023-04-25T13:15:22;7.38;;;2.25;;
52380;SDS011;38310;52.796;6.942;2023-04-25T13:17:48;5.93;;;2.15;;
52380;SDS011;38310;52.796;6.942;2023-04-25T13:20:13;7.68;;;2.35;;
52380;SDS011;38310;52.796;6.942;2023-04-25T13:22:40;3.78;;;1.80;;
52380;SDS011;38310;52.796;6.942;2023-04-25T13:25:07;6.25;;;1.77;;
52380;SDS011;38310;52.796;6.942;2023-04-25T13:27:33;4.95;;;1.90;;
52380;SDS011;38310;52.796;6.942;2023-04-25T13:30:01;4.07;;;1.50;;
52380;SDS011;38310;52.796;6.942;2023-04-25T13:32:36;5.78;;;2.13;;
52380;SDS011;38310;52.796;6.942;2023-04-25T13:35:03;7.35;;;1.90;;
52380;SDS011;38310;52.796;6.942;2023-04-25T13:37:29;6.65;;;1.70;;
52380;SDS011;38310;52.796;6.942;2023-04-25T13:39:58;3.15;;;1.85;;
52380;SDS011;38310;52.796;6.942;2023-04-25T13:42:25;9.23;;;2.00;;
52380;SDS011;38310;52.796;6.942;2023-04-25T13:44:51;4.78;;;1.73;;
52380;SDS011;38310;52.796;6.942;2023-04-25T13:47:16;6.07;;;1.90;;
52380;SDS011;38310;52.796;6.942;2023-04-25T13:49:42;9.05;;;2.00;;
52380;SDS011;38310;52.796;6.942;2023-04-25T13:52:08;4.82;;;1.75;;
52380;SDS011;38310;52.796;6.942;2023-04-25T13:54:37;3.55;;;1.27;;
52380;SDS011;38310;52.796;6.942;2023-04-25T13:57:02;3.00;;;1.52;;
52380;SDS011;38310;52.796;6.942;2023-04-25T13:59:28;4.03;;;1.55;;
52380;SDS011;38310;52.796;6.942;2023-04-25T14:01:54;5.25;;;1.40;;
52380;SDS011;38310;52.796;6.942;2023-04-25T14:04:19;6.57;;;1.80;;
52380;SDS011;38310;52.796;6.942;2023-04-25T14:06:45;7.03;;;1.60;;
52380;SDS011;38310;52.796;6.942;2023-04-25T14:09:11;6.25;;;1.83;;
52380;SDS011;38310;52.796;6.942;2023-04-25T14:11:38;6.45;;;1.73;;
52380;SDS011;38310;52.796;6.942;2023-04-25T14:14:04;6.35;;;1.90;;
52380;SDS011;38310;52.796;6.942;2023-04-25T14:16:30;5.05;;;1.90;;
52380;SDS011;38310;52.796;6.942;2023-04-25T14:18:59;5.40;;;1.20;;
52380;SDS011;38310;52.796;6.942;2023-04-25T14:21:25;6.53;;;1.58;;
52380;SDS011;38310;52.796;6.942;2023-04-25T14:23:52;5.22;;;1.50;;
52380;SDS011;38310;52.796;6.942;2023-04-25T14:26:17;3.53;;;1.40;;
52380;SDS011;38310;52.796;6.942;2023-04-25T14:28:43;5.45;;;1.60;;
52380;SDS011;38310;52.796;6.942;2023-04-25T14:31:09;7.10;;;1.77;;
52380;SDS011;38310;52.796;6.942;2023-04-25T14:33:35;4.43;;;1.70;;
52380;SDS011;38310;52.796;6.942;2023-04-25T14:36:02;6.53;;;1.65;;
52380;SDS011;38310;52.796;6.942;2023-04-25T14:38:28;7.57;;;2.15;;
52380;SDS011;38310;52.796;6.942;2023-04-25T14:40:54;4.93;;;1.88;;
52380;SDS011;38310;52.796;6.942;2023-04-25T14:43:19;3.47;;;1.70;;
52380;SDS011;38310;52.796;6.942;2023-04-25T14:45:45;5.15;;;2.17;;
52380;SDS011;38310;52.796;6.942;2023-04-25T14:48:11;4.97;;;1.70;;
52380;SDS011;38310;52.796;6.942;2023-04-25T14:50:37;5.75;;;2.25;;
52380;SDS011;38310;52.796;6.942;2023-04-25T14:53:02;5.80;;;2.40;;